Time;durP1;ratioP1;P1;durP2;ratioP2;P2;SDS_P1;SDS_P2;PMS_P1;PMS_P2;Temp;Humidity;BMP_temperature;BMP_pressure;BME280_temperature;BME280_humidity;BME280_pressure;Samples;Min_cycle;Max_cycle;Signal;HPM_P1;HPM_P2
2023/11/03 00:02:14;;;;;;;34.25;31.60;;;;;;;8.35;100.00;100279.03;5075945;28;20056;-72
2023/11/03 00:04:41;;;;;;;128.15;120.53;;;;;;;8.45;100.00;100294.53;5069086;28;20504;-73
2023/11/03 00:07:08;;;;;;;139.68;131.52;;;;;;;8.48;100.00;100283.53;5072609;28;20541;-73
2023/11/03 00:09:37;;;;;;;141.55;133.18;;;;;;;8.47;100.00;100274.78;5063362;28;20048;-73
2023/11/03 00:12:06;;;;;;;119.82;112.85;;;;;;;7.97;100.00;100257.56;5066882;28;20045;-75
2023/11/03 00:14:33;;;;;;;109.80;103.30;;;;;;;8.14;100.00;100258.84;5068567;28;20137;-73
2023/11/03 00:17:01;;;;;;;104.57;98.50;;;;;;;7.96;100.00;100250.66;5067879;28;20057;-75
2023/11/03 00:19:31;;;;;;;111.78;105.07;;;;;;;7.82;100.00;100244.50;5066995;28;20600;-73
2023/11/03 00:21:58;;;;;;;92.93;87.43;;;;;;;7.54;100.00;100240.16;5070687;28;20048;-73
2023/11/03 00:24:31;;;;;;;98.82;93.00;;;;;;;7.56;100.00;100242.59;5069333;28;20040;-73
2023/11/03 00:26:59;;;;;;;99.53;93.72;;;;;;;7.85;100.00;100240.66;5067963;28;20048;-73
2023/11/03 00:29:27;;;;;;;104.63;98.63;;;;;;;8.03;100.00;100247.00;5069564;28;20556;-75
2023/11/03 00:31:54;;;;;;;37.13;34.42;;;;;;;7.99;100.00;100247.63;5071971;28;20063;-75
2023/11/03 00:34:22;;;;;;;41.78;38.58;;;;;;;8.04;100.00;100242.53;5067030;28;20441;-72
2023/11/03 00:36:49;;;;;;;36.45;33.65;;;;;;;8.05;100.00;100238.88;5079878;28;20486;-75
2023/11/03 00:39:18;;;;;;;40.60;37.40;;;;;;;7.51;100.00;100219.41;5070488;28;20052;-73
2023/11/03 00:41:47;;;;;;;37.05;34.15;;;;;;;7.23;100.00;100221.31;5069389;28;20438;-75
2023/11/03 00:44:17;;;;;;;118.82;111.72;;;;;;;7.16;100.00;100225.75;5063673;28;20132;-75
2023/11/03 00:46:49;;;;;;;113.18;106.55;;;;;;;7.07;100.00;100217.16;5069420;28;20730;-75
2023/11/03 00:49:18;;;;;;;110.53;104.07;;;;;;;7.38;100.00;100221.16;5068577;28;20133;-74
2023/11/03 00:51:45;;;;;;;108.13;101.80;;;;;;;7.38;100.00;100224.63;5068804;28;20131;-72
2023/11/03 00:54:18;;;;;;;105.60;99.35;;;;;;;7.52;100.00;100238.72;5068956;28;20112;-73
2023/11/03 00:56:50;;;;;;;109.18;102.75;;;;;;;7.82;100.00;100241.06;5068866;28;20430;-73
2023/11/03 00:59:19;;;;;;;111.55;104.65;;;;;;;7.89;100.00;100241.88;5069068;28;20063;-75
2023/11/03 01:01:46;;;;;;;104.45;98.35;;;;;;;7.93;100.00;100243.94;5068278;28;20060;-75
2023/11/03 01:04:13;;;;;;;33.88;31.00;;;;;;;7.80;100.00;100250.00;5069392;28;20049;-74
2023/11/03 01:06:40;;;;;;;34.28;31.67;;;;;;;7.79;100.00;100252.84;5082568;28;20126;-75
2023/11/03 01:09:09;;;;;;;56.97;53.13;;;;;;;7.57;100.00;100252.16;5068935;28;20094;-75
2023/11/03 01:11:41;;;;;;;61.30;57.30;;;;;;;7.18;100.00;100256.25;5067880;28;20084;-75
2023/11/03 01:14:09;;;;;;;57.60;53.90;;;;;;;7.29;100.00;100246.94;5065936;28;20487;-75
2023/11/03 01:16:38;;;;;;;62.95;59.05;;;;;;;7.48;100.00;100243.59;5062976;28;20053;-75
2023/11/03 01:19:06;;;;;;;71.97;67.47;;;;;;;7.47;100.00;100247.22;5061109;28;20505;-75
2023/11/03 01:21:32;;;;;;;65.57;61.58;;;;;;;7.41;100.00;100240.09;5068284;28;20048;-75
2023/11/03 01:24:12;;;;;;;62.22;58.33;;;;;;;7.23;100.00;100234.50;5068340;28;20063;-75
2023/11/03 01:26:39;;;;;;;80.18;74.47;;;;;;;7.21;100.00;100229.44;5068250;28;20044;-75
2023/11/03 01:29:12;;;;;;;69.25;64.97;;;;;;;7.37;100.00;100235.41;5068685;28;20051;-75
2023/11/03 01:31:40;;;;;;;55.30;51.40;;;;;;;7.41;100.00;100241.91;5068907;28;20080;-73
2023/11/03 01:34:07;;;;;;;39.45;36.63;;;;;;;7.18;100.00;100231.66;5061904;28;20080;-72
2023/11/03 01:36:37;;;;;;;72.25;67.85;;;;;;;7.05;100.00;100241.16;5066520;28;20057;-73
2023/11/03 01:39:05;;;;;;;73.32;68.85;;;;;;;7.12;100.00;100238.53;5068413;28;20135;-73
2023/11/03 01:41:32;;;;;;;60.78;56.80;;;;;;;7.28;100.00;100235.56;5067587;28;20051;-73
2023/11/03 01:44:09;;;;;;;56.05;52.38;;;;;;;7.32;100.00;100233.34;5068218;28;20049;-73
2023/11/03 01:46:36;;;;;;;63.25;59.15;;;;;;;6.69;100.00;100240.47;5071324;28;20052;-73
2023/11/03 01:49:06;;;;;;;59.45;55.63;;;;;;;7.15;100.00;100242.63;5067920;28;20657;-73
2023/11/03 01:51:35;;;;;;;57.47;53.88;;;;;;;7.17;100.00;100245.84;5068026;28;20045;-72
2023/11/03 01:54:05;;;;;;;66.97;62.80;;;;;;;7.13;100.00;100252.56;5067939;28;20044;-72
2023/11/03 01:56:33;;;;;;;58.28;54.55;;;;;;;7.25;100.00;100230.66;5070938;28;20102;-73
2023/11/03 01:59:03;;;;;;;40.85;37.75;;;;;;;6.84;100.00;100238.56;5071461;28;20486;-75
2023/11/03 02:01:32;;;;;;;42.05;38.55;;;;;;;6.22;100.00;100237.47;5066644;28;20544;-75
2023/11/03 02:03:59;;;;;;;41.47;38.38;;;;;;;6.32;100.00;100240.59;5071623;28;20052;-73
2023/11/03 02:06:28;;;;;;;38.63;35.72;;;;;;;6.59;100.00;100248.72;5071474;28;21058;-72
2023/11/03 02:09:06;;;;;;;44.53;41.53;;;;;;;7.10;100.00;100248.47;5081225;28;20045;-75
2023/11/03 02:11:33;;;;;;;42.65;39.75;;;;;;;7.15;100.00;100242.63;5071790;28;20051;-76
2023/11/03 02:14:01;;;;;;;46.83;43.72;;;;;;;7.06;100.00;100244.59;5071405;28;20051;-75
2023/11/03 02:16:28;;;;;;;42.65;39.78;;;;;;;7.20;100.00;100230.47;5071548;28;20052;-75
2023/11/03 02:18:55;;;;;;;39.05;36.25;;;;;;;7.16;100.00;100223.91;5067258;28;20076;-75
2023/11/03 02:21:22;;;;;;;42.58;39.45;;;;;;;6.59;100.00;100217.06;5067382;28;20067;-74
2023/11/03 02:23:51;;;;;;;42.83;38.83;;;;;;;6.12;100.00;100211.41;5072381;28;20053;-75
2023/11/03 02:26:18;;;;;;;39.15;36.25;;;;;;;6.17;100.00;100203.75;5069217;28;20059;-75
2023/11/03 02:28:51;;;;;;;39.70;36.80;;;;;;;6.73;100.00;100208.22;5071007;28;20730;-75
2023/11/03 02:31:18;;;;;;;36.83;34.25;;;;;;;6.89;100.00;100204.47;5070861;28;20044;-75
2023/11/03 02:33:45;;;;;;;39.75;35.85;;;;;;;6.86;100.00;100212.78;5073733;28;20064;-75
2023/11/03 02:36:14;;;;;;;37.08;34.38;;;;;;;6.85;100.00;100213.78;5066842;28;20502;-75
2023/11/03 02:38:43;;;;;;;41.97;38.88;;;;;;;6.92;100.00;100198.00;5074619;28;20441;-75
2023/11/03 02:41:11;;;;;;;43.47;40.08;;;;;;;6.70;100.00;100192.78;5071329;28;20044;-75
2023/11/03 02:43:56;;;;;;;40.08;36.92;;;;;;;6.00;100.00;100193.66;5070193;28;20044;-75
2023/11/03 02:46:31;;;;;;;37.55;34.65;;;;;;;5.99;100.00;100189.38;5071122;28;20061;-75
2023/11/03 02:48:59;;;;;;;39.08;36.17;;;;;;;6.46;100.00;100188.75;5069608;28;20097;-74
2023/11/03 02:51:25;;;;;;;31.58;29.27;;;;;;;6.53;100.00;100186.97;5070677;28;20048;-75
2023/11/03 02:53:52;;;;;;;31.05;28.85;;;;;;;6.36;100.00;100197.00;5066729;28;20056;-73
2023/11/03 02:56:25;;;;;;;34.58;31.98;;;;;;;6.39;100.00;100201.91;5071636;28;20048;-73
2023/11/03 02:58:58;;;;;;;40.05;37.35;;;;;;;6.63;100.00;100192.75;5071277;28;20056;-72
2023/11/03 03:01:28;;;;;;;40.60;37.30;;;;;;;6.46;100.00;100214.34;5070231;28;20063;-75
2023/11/03 03:03:55;;;;;;;44.75;41.85;;;;;;;6.40;100.00;100208.81;5069946;28;20037;-75
2023/11/03 03:06:22;;;;;;;39.80;37.20;;;;;;;6.54;100.00;100199.19;5067299;28;20524;-75
2023/11/03 03:08:49;;;;;;;48.78;45.47;;;;;;;6.75;100.00;100190.38;5068734;28;20047;-75
2023/11/03 03:11:16;;;;;;;44.35;41.25;;;;;;;6.41;100.00;100196.41;5069449;28;20049;-75
2023/11/03 03:13:47;;;;;;;40.00;37.20;;;;;;;6.62;100.00;100180.53;5070038;28;20040;-73
2023/11/03 03:16:18;;;;;;;38.58;36.03;;;;;;;6.72;100.00;100169.66;5069528;28;20513;-72
2023/11/03 03:18:48;;;;;;;37.95;35.35;;;;;;;6.76;100.00;100152.41;5065996;28;20072;-75
2023/11/03 03:21:17;;;;;;;35.10;32.60;;;;;;;5.75;100.00;100149.19;5070154;28;20052;-72
2023/11/03 03:23:43;;;;;;;39.70;36.70;;;;;;;5.84;100.00;100139.31;5070190;28;20053;-75
2023/11/03 03:26:10;;;;;;;37.58;34.88;;;;;;;6.17;100.00;100137.84;5070669;28;20056;-72
2023/11/03 03:28:40;;;;;;;37.65;35.05;;;;;;;6.51;100.00;100130.97;5069944;28;20055;-73
2023/11/03 03:31:09;;;;;;;36.03;33.58;;;;;;;6.47;100.00;100120.97;5072079;28;20052;-73
2023/11/03 03:33:36;;;;;;;34.55;31.85;;;;;;;6.52;100.00;100127.31;5069604;28;20048;-73
2023/11/03 03:36:03;;;;;;;36.25;33.55;;;;;;;6.18;100.00;100123.63;5075474;28;20052;-73
2023/11/03 03:38:30;;;;;;;31.02;28.73;;;;;;;6.46;100.00;100129.91;5074643;28;20121;-73
2023/11/03 03:40:56;;;;;;;31.00;28.60;;;;;;;6.58;100.00;100128.34;5076248;28;20054;-73
2023/11/03 03:43:23;;;;;;;37.50;34.60;;;;;;;6.68;100.00;100125.38;5070617;28;20076;-72
2023/11/03 03:45:50;;;;;;;28.38;26.27;;;;;;;6.45;100.00;100131.75;5076754;28;20056;-73
2023/11/03 03:48:19;;;;;;;28.10;26.02;;;;;;;6.74;100.00;100124.59;5077126;28;20103;-73
2023/11/03 03:50:46;;;;;;;34.83;32.20;;;;;;;6.62;100.00;100121.69;5074302;28;20559;-73
2023/11/03 03:53:13;;;;;;;29.20;26.90;;;;;;;6.31;100.00;100125.53;5071260;28;20067;-72
2023/11/03 03:55:40;;;;;;;31.13;28.73;;;;;;;6.52;100.00;100129.94;5065671;28;20056;-73
2023/11/03 03:58:07;;;;;;;31.02;28.73;;;;;;;6.69;100.00;100127.81;5070022;28;20044;-73
2023/11/03 04:00:34;;;;;;;35.92;33.22;;;;;;;7.01;100.00;100120.25;5072055;28;20045;-72
2023/11/03 04:03:01;;;;;;;38.00;35.30;;;;;;;6.72;100.00;100108.13;5072122;28;20049;-73
2023/11/03 04:05:31;;;;;;;35.30;32.80;;;;;;;6.79;100.00;100141.47;5073743;28;20403;-73
2023/11/03 04:07:59;;;;;;;33.28;30.88;;;;;;;6.78;100.00;100141.69;5069002;28;20052;-73
2023/11/03 04:10:29;;;;;;;47.25;44.05;;;;;;;6.90;100.00;100116.34;5068648;28;20052;-73
2023/11/03 04:12:57;;;;;;;45.22;42.13;;;;;;;6.79;100.00;100101.06;5071081;28;20524;-73
2023/11/03 04:15:23;;;;;;;39.15;36.45;;;;;;;6.83;100.00;100091.75;5066826;28;20639;-73
2023/11/03 04:17:53;;;;;;;42.67;39.78;;;;;;;6.34;100.00;100093.50;5063456;28;20049;-73
2023/11/03 04:20:20;;;;;;;32.05;29.55;;;;;;;6.20;100.00;100102.31;5063314;28;20083;-73
2023/11/03 04:22:49;;;;;;;37.97;35.17;;;;;;;6.39;100.00;100101.66;5066763;28;20054;-73
2023/11/03 04:25:16;;;;;;;35.53;33.03;;;;;;;6.59;100.00;100095.69;5069258;28;20087;-72
2023/11/03 04:27:43;;;;;;;63.35;59.65;;;;;;;6.70;100.00;100091.69;5069088;28;20068;-73
2023/11/03 04:30:11;;;;;;;66.10;62.20;;;;;;;6.80;100.00;100100.03;5069957;28;20055;-73
2023/11/03 04:32:38;;;;;;;76.85;72.35;;;;;;;7.01;100.00;100102.56;5074403;28;20055;-73
2023/11/03 04:35:07;;;;;;;87.63;82.13;;;;;;;7.09;100.00;100106.88;5068839;28;20052;-73
2023/11/03 04:37:34;;;;;;;85.80;80.35;;;;;;;7.22;100.00;100095.53;5068880;28;20498;-73
2023/11/03 04:40:03;;;;;;;82.28;76.47;;;;;;;7.24;100.00;100089.03;5068581;28;20041;-73
2023/11/03 04:42:32;;;;;;;100.15;92.88;;;;;;;6.74;100.00;100083.16;5067130;28;20500;-72
2023/11/03 04:44:59;;;;;;;81.45;75.40;;;;;;;6.43;100.00;100079.16;5068838;28;20446;-72
2023/11/03 04:47:26;;;;;;;78.40;71.63;;;;;;;6.65;100.00;100085.16;5068037;28;20102;-72
2023/11/03 04:49:53;;;;;;;66.30;60.38;;;;;;;6.71;100.00;100090.66;5067169;28;20039;-73
2023/11/03 04:52:21;;;;;;;49.47;45.08;;;;;;;6.81;100.00;100099.88;5069029;28;20063;-73
2023/11/03 04:54:56;;;;;;;28.40;26.42;;;;;;;7.17;100.00;100093.50;5069317;28;20063;-73
2023/11/03 04:57:25;;;;;;;26.80;25.20;;;;;;;7.23;100.00;100081.31;5069359;28;20840;-72
2023/11/03 04:59:51;;;;;;;26.95;25.25;;;;;;;7.01;100.00;100078.81;5067582;28;20501;-73
2023/11/03 05:02:18;;;;;;;24.60;23.00;;;;;;;6.57;100.00;100077.41;5066655;28;20048;-72
2023/11/03 05:04:45;;;;;;;27.65;25.85;;;;;;;6.84;100.00;100080.19;5064201;28;20063;-73
2023/11/03 05:07:12;;;;;;;25.05;23.45;;;;;;;6.81;100.00;100080.59;5068134;28;20052;-73
2023/11/03 05:09:39;;;;;;;23.50;22.00;;;;;;;7.18;100.00;100091.69;5067022;28;20068;-73
2023/11/03 05:12:06;;;;;;;26.02;24.42;;;;;;;7.20;100.00;100093.13;5066131;28;20045;-73
2023/11/03 05:14:36;;;;;;;25.48;23.77;;;;;;;7.36;100.00;100099.84;5063871;28;20510;-73
2023/11/03 05:17:03;;;;;;;23.95;22.35;;;;;;;7.54;100.00;100108.03;5064574;28;20048;-73
2023/11/03 05:19:30;;;;;;;26.20;24.50;;;;;;;7.47;100.00;100099.25;5059324;28;20059;-73
2023/11/03 05:21:56;;;;;;;24.60;23.00;;;;;;;7.39;100.00;100096.81;5066992;28;20437;-73
2023/11/03 05:24:23;;;;;;;25.92;24.23;;;;;;;7.60;100.00;100079.97;5008029;28;20053;-73
2023/11/03 05:26:50;;;;;;;30.05;28.35;;;;;;;7.63;100.00;100073.47;5024495;28;20586;-73
2023/11/03 05:29:22;;;;;;;28.20;26.40;;;;;;;6.77;100.00;100071.41;5026033;28;20053;-73
2023/11/03 05:31:50;;;;;;;27.50;25.70;;;;;;;7.02;100.00;100069.06;5027226;28;20053;-73
2023/11/03 05:34:18;;;;;;;29.77;27.88;;;;;;;7.06;100.00;100072.94;5027469;28;20056;-73
2023/11/03 05:36:45;;;;;;;25.67;24.08;;;;;;;7.72;100.00;100077.56;5030247;28;20060;-73
2023/11/03 05:39:13;;;;;;;25.20;23.60;;;;;;;8.05;100.00;100066.97;5027797;28;20053;-72
2023/11/03 05:41:40;;;;;;;26.35;24.55;;;;;;;8.21;100.00;100078.94;5028393;28;20135;-73
2023/11/03 05:44:07;;;;;;;25.95;24.25;;;;;;;8.16;100.00;100089.31;5027092;28;20496;-74
2023/11/03 05:46:34;;;;;;;25.58;23.85;;;;;;;8.35;100.00;100098.25;5029446;28;20056;-73
2023/11/03 05:49:02;;;;;;;24.17;22.65;;;;;;;8.53;100.00;100097.63;5024762;28;20045;-72
2023/11/03 05:51:30;;;;;;;26.70;24.90;;;;;;;8.72;100.00;100107.38;5029600;28;20513;-73
2023/11/03 05:53:57;;;;;;;26.58;24.88;;;;;;;9.00;100.00;100099.13;5029802;28;20041;-74
2023/11/03 05:56:24;;;;;;;29.88;28.08;;;;;;;9.04;100.00;100102.16;5031068;28;20438;-73
2023/11/03 05:58:51;;;;;;;28.52;26.63;;;;;;;9.07;100.00;100093.78;5029012;28;20046;-73
2023/11/03 06:01:19;;;;;;;27.85;25.95;;;;;;;9.40;100.00;100073.22;5023961;28;20053;-73
2023/11/03 06:03:46;;;;;;;30.83;28.75;;;;;;;9.86;100.00;100066.78;5026842;28;20127;-74
2023/11/03 06:06:16;;;;;;;29.52;27.50;;;;;;;9.98;100.00;100045.63;5028944;28;20060;-75
2023/11/03 06:08:43;;;;;;;29.13;27.20;;;;;;;10.28;100.00;100029.06;5024078;28;20508;-75
2023/11/03 06:11:10;;;;;;;30.60;28.50;;;;;;;10.46;100.00;100037.03;5022312;28;20045;-74
2023/11/03 06:13:37;;;;;;;30.85;28.50;;;;;;;9.75;100.00;100042.81;5027768;28;20049;-75
2023/11/03 06:16:05;;;;;;;28.45;26.05;;;;;;;10.07;100.00;100046.97;5028454;28;20065;-74
2023/11/03 06:18:32;;;;;;;30.00;27.50;;;;;;;11.17;100.00;100045.34;5026216;28;20526;-75
2023/11/03 06:20:59;;;;;;;29.63;27.33;;;;;;;11.45;100.00;100039.41;5026350;28;20499;-75
2023/11/03 06:23:28;;;;;;;30.73;28.42;;;;;;;11.68;100.00;100031.47;5027509;28;20046;-73
2023/11/03 06:25:54;;;;;;;32.40;29.95;;;;;;;11.76;100.00;100042.81;5027772;28;20132;-73
2023/11/03 06:28:21;;;;;;;29.30;26.90;;;;;;;11.79;100.00;100029.06;5027979;28;20056;-73
2023/11/03 06:30:49;;;;;;;29.08;26.85;;;;;;;11.87;100.00;100012.78;5027062;28;20057;-73
2023/11/03 06:33:16;;;;;;;34.95;32.55;;;;;;;11.91;100.00;100012.06;5024319;28;20084;-75
2023/11/03 06:35:43;;;;;;;37.28;34.22;;;;;;;11.97;100.00;100013.00;5030360;28;20049;-74
2023/11/03 06:38:12;;;;;;;34.85;32.15;;;;;;;12.67;100.00;100009.41;5029503;28;20426;-74
2023/11/03 06:40:40;;;;;;;32.17;29.67;;;;;;;12.84;100.00;100012.94;5029313;28;20094;-73
2023/11/03 06:43:07;;;;;;;33.60;31.05;;;;;;;12.87;100.00;100002.88;5022288;28;20080;-74
2023/11/03 06:45:34;;;;;;;33.63;31.02;;;;;;;12.90;100.00;99999.72;5025499;28;20056;-75
2023/11/03 06:48:01;;;;;;;49.42;46.13;;;;;;;12.77;100.00;99988.31;5027739;28;20057;-73
2023/11/03 06:50:28;;;;;;;54.78;51.28;;;;;;;13.13;100.00;99988.13;5028042;28;20052;-73
2023/11/03 06:52:56;;;;;;;50.15;46.75;;;;;;;12.70;100.00;99987.63;5027992;28;20096;-75
2023/11/03 06:55:22;;;;;;;43.70;40.50;;;;;;;12.90;100.00;99992.53;5027996;28;20050;-75
2023/11/03 06:57:51;;;;;;;53.78;50.33;;;;;;;13.50;100.00;99986.66;5029385;28;20045;-74
2023/11/03 07:00:18;;;;;;;52.70;49.10;;;;;;;13.80;100.00;99977.50;5029802;28;20073;-75
2023/11/03 07:02:45;;;;;;;41.10;38.20;;;;;;;13.81;100.00;99976.44;5029026;28;20057;-75
2023/11/03 07:05:13;;;;;;;36.17;33.58;;;;;;;14.12;100.00;99968.84;5029554;28;20072;-75
2023/11/03 07:07:40;;;;;;;34.65;32.05;;;;;;;14.15;100.00;99953.16;5027283;28;20132;-75
2023/11/03 07:10:09;;;;;;;34.90;31.25;;;;;;;14.40;100.00;99963.34;5029462;28;20159;-74
2023/11/03 07:12:36;;;;;;;38.03;35.00;;;;;;;14.80;100.00;99948.03;5029033;28;20053;-75
2023/11/03 07:15:06;;;;;;;61.13;57.08;;;;;;;15.05;100.00;99942.13;5029380;28;20493;-75
2023/11/03 07:17:34;;;;;;;47.75;44.55;;;;;;;15.34;100.00;99948.00;5029187;28;20053;-75
2023/11/03 07:20:03;;;;;;;49.75;46.38;;;;;;;15.40;100.00;99960.34;5024033;28;20507;-75
2023/11/03 07:22:30;;;;;;;50.95;47.55;;;;;;;15.63;100.00;99964.50;5029106;28;20103;-73
2023/11/03 07:24:57;;;;;;;50.42;46.92;;;;;;;15.59;100.00;99947.38;5028821;28;20041;-73
2023/11/03 07:27:24;;;;;;;38.08;35.47;;;;;;;15.71;100.00;99942.66;5028482;28;20049;-73
2023/11/03 07:29:51;;;;;;;31.40;29.00;;;;;;;15.93;100.00;99947.84;5029033;28;20053;-73
2023/11/03 07:32:20;;;;;;;31.38;28.88;;;;;;;16.66;100.00;99947.06;5029102;28;20572;-73
2023/11/03 07:34:46;;;;;;;31.90;29.50;;;;;;;16.79;100.00;99937.72;5029324;28;20275;-73
2023/11/03 07:37:13;;;;;;;39.78;36.97;;;;;;;17.04;100.00;99931.63;5031223;28;20065;-74
2023/11/03 07:39:40;;;;;;;39.35;36.65;;;;;;;17.48;100.00;99929.16;5028992;28;20056;-74
2023/11/03 07:42:08;;;;;;;41.33;38.72;;;;;;;17.25;100.00;99927.06;5029316;28;20426;-73
2023/11/03 07:44:35;;;;;;;31.73;29.55;;;;;;;17.15;100.00;99936.69;5028546;28;20061;-73
2023/11/03 07:47:06;;;;;;;31.27;28.75;;;;;;;17.46;100.00;99939.38;5028820;28;20054;-74
2023/11/03 07:49:36;;;;;;;31.88;30.08;;;;;;;17.51;100.00;99949.28;5030481;28;20045;-74
2023/11/03 07:52:03;;;;;;;30.92;29.02;;;;;;;17.39;100.00;99954.94;5028815;28;20054;-73
2023/11/03 07:54:29;;;;;;;43.75;41.15;;;;;;;17.38;100.00;99969.44;5028380;28;20144;-74
2023/11/03 07:56:57;;;;;;;47.00;44.10;;;;;;;17.67;100.00;99952.75;5029188;28;20462;-74
2023/11/03 07:59:24;;;;;;;41.95;39.25;;;;;;;17.94;100.00;99934.47;5030616;28;20049;-74
2023/11/03 08:01:51;;;;;;;42.00;39.60;;;;;;;18.13;100.00;99925.81;5023972;28;20053;-74
2023/11/03 08:04:19;;;;;;;25.50;24.00;;;;;;;17.98;100.00;99924.00;5028250;28;20068;-73
2023/11/03 08:06:48;;;;;;;27.15;25.27;;;;;;;17.76;100.00;99905.47;5040367;28;20403;-75
2023/11/03 08:09:15;;;;;;;26.15;24.67;;;;;;;17.67;100.00;99913.31;5026662;28;20060;-74
2023/11/03 08:11:42;;;;;;;23.50;22.20;;;;;;;17.66;100.00;99929.69;5028840;28;20096;-74
2023/11/03 08:14:09;;;;;;;31.90;30.00;;;;;;;17.61;100.00;99928.63;5027726;28;20532;-75
2023/11/03 08:16:36;;;;;;;35.08;33.08;;;;;;;17.61;100.00;99928.63;5027774;28;20049;-74
2023/11/03 08:19:03;;;;;;;31.88;29.92;;;;;;;17.62;100.00;99919.47;5026379;28;20041;-74
2023/11/03 08:21:33;;;;;;;28.95;27.15;;;;;;;17.55;100.00;99921.66;5025070;28;20435;-74
2023/11/03 08:24:01;;;;;;;32.83;31.02;;;;;;;17.60;100.00;99912.78;5026490;28;20367;-74
2023/11/03 08:26:28;;;;;;;36.35;34.35;;;;;;;17.66;100.00;99900.94;5025280;28;20053;-75
2023/11/03 08:28:55;;;;;;;22.80;21.15;;;;;;;17.76;100.00;99905.47;5028026;28;20057;-74
2023/11/03 08:31:24;;;;;;;31.92;30.02;;;;;;;17.89;100.00;99896.09;5027749;28;20053;-74
2023/11/03 08:33:51;;;;;;;30.42;28.50;;;;;;;18.07;100.00;99895.47;5027627;28;20550;-73
2023/11/03 08:36:18;;;;;;;44.05;41.35;;;;;;;18.47;100.00;99890.97;5030304;28;20049;-73
2023/11/03 08:38:45;;;;;;;38.63;36.33;;;;;;;19.07;100.00;99899.72;5028431;28;20060;-74
2023/11/03 08:41:14;;;;;;;34.92;32.72;;;;;;;19.84;100.00;99894.41;5030778;28;20056;-74
2023/11/03 08:43:41;;;;;;;37.00;34.42;;;;;;;20.28;100.00;99884.44;5027692;28;20080;-74
2023/11/03 08:46:09;;;;;;;30.23;28.33;;;;;;;20.33;100.00;99874.38;5027925;28;20089;-74
2023/11/03 08:48:36;;;;;;;27.33;25.52;;;;;;;20.34;100.00;99869.78;5027584;28;20058;-74
2023/11/03 08:51:03;;;;;;;29.02;27.13;;;;;;;20.67;100.00;99862.59;5027535;28;20049;-74
2023/11/03 08:53:30;;;;;;;23.90;22.13;;;;;;;20.59;100.00;99857.84;5027700;28;20506;-75
2023/11/03 08:55:58;;;;;;;23.85;22.27;;;;;;;20.66;100.00;99854.78;5027956;28;20449;-76
2023/11/03 08:58:27;;;;;;;24.35;22.48;;;;;;;20.63;100.00;99856.16;5027358;28;20049;-75
2023/11/03 09:00:56;;;;;;;25.70;23.65;;;;;;;20.94;100.00;99837.59;5027868;28;20042;-76
2023/11/03 09:03:23;;;;;;;23.88;22.27;;;;;;;20.54;100.00;99839.03;5027563;28;20053;-74
2023/11/03 09:05:49;;;;;;;24.02;22.33;;;;;;;20.26;100.00;99841.56;5027149;28;20060;-74
2023/11/03 09:08:16;;;;;;;23.52;21.92;;;;;;;20.74;100.00;99835.22;5027452;28;20053;-75
2023/11/03 09:10:43;;;;;;;24.10;22.35;;;;;;;21.40;100.00;99838.72;5026668;28;20465;-76
2023/11/03 09:13:10;;;;;;;39.53;37.13;;;;;;;21.56;100.00;99826.50;5027389;28;20454;-75
2023/11/03 09:15:39;;;;;;;37.95;35.75;;;;;;;21.52;100.00;99827.41;5027072;28;20053;-76
2023/11/03 09:18:07;;;;;;;38.42;35.92;;;;;;;22.25;100.00;99822.94;5027293;28;20127;-76
2023/11/03 09:20:34;;;;;;;41.60;38.90;;;;;;;22.55;100.00;99807.88;5021602;28;20049;-76
2023/11/03 09:23:01;;;;;;;41.55;39.25;;;;;;;22.48;100.00;99805.63;5027421;28;20053;-76
2023/11/03 09:25:29;;;;;;;26.08;24.38;;;;;;;23.48;100.00;99804.38;5027992;28;20057;-76
2023/11/03 09:27:56;;;;;;;39.53;37.03;;;;;;;23.89;100.00;99805.97;5027107;28;20140;-77
2023/11/03 09:30:23;;;;;;;43.13;40.65;;;;;;;23.87;100.00;99803.56;5025239;28;20499;-76
2023/11/03 09:32:52;;;;;;;27.55;25.75;;;;;;;23.86;100.00;99814.75;5023306;28;20519;-76
2023/11/03 09:35:19;;;;;;;24.92;23.23;;;;;;;23.71;100.00;99810.56;5025328;28;20439;-76
2023/11/03 09:37:46;;;;;;;26.05;24.15;;;;;;;23.31;100.00;99805.16;5017416;28;20059;-76
2023/11/03 09:40:17;;;;;;;26.98;25.00;;;;;;;23.51;100.00;99801.88;5026186;28;20056;-77
2023/11/03 09:42:46;;;;;;;25.63;23.83;;;;;;;23.29;100.00;99800.03;5020622;28;20065;-76
2023/11/03 09:45:15;;;;;;;25.30;23.63;;;;;;;23.62;100.00;99785.31;5026598;28;20069;-76
2023/11/03 09:47:43;;;;;;;25.90;24.20;;;;;;;23.69;100.00;99783.78;5026642;28;20050;-76
2023/11/03 09:50:12;;;;;;;24.42;22.83;;;;;;;23.58;100.00;99787.06;5026266;28;20046;-76
2023/11/03 09:52:46;;;;;;;24.45;22.75;;;;;;;23.49;100.00;99777.00;5026744;28;20416;-75
2023/11/03 09:55:17;;;;;;;26.20;24.40;;;;;;;24.15;100.00;99746.34;5026731;28;20464;-76
2023/11/03 09:57:45;;;;;;;25.35;23.55;;;;;;;24.41;100.00;99735.44;5026446;28;20053;-75
2023/11/03 10:00:17;;;;;;;25.25;23.52;;;;;;;24.66;100.00;99739.22;5026779;28;20049;-76
2023/11/03 10:02:44;;;;;;;26.35;24.58;;;;;;;25.10;100.00;99748.84;5024668;28;20060;-76
2023/11/03 10:05:16;;;;;;;26.40;24.60;;;;;;;25.42;100.00;99734.94;5018255;28;20045;-76
2023/11/03 10:07:52;;;;;;;26.17;24.48;;;;;;;25.46;100.00;99733.97;5022713;28;20049;-75
2023/11/03 10:10:20;;;;;;;26.55;24.58;;;;;;;24.73;100.00;99739.56;5025372;28;20057;-75
2023/11/03 10:12:47;;;;;;;27.92;25.83;;;;;;;25.31;100.00;99740.78;5027772;28;20061;-76
2023/11/03 10:15:14;;;;;;;27.27;25.38;;;;;;;25.37;100.00;99744.09;5021325;28;20050;-76
2023/11/03 10:17:44;;;;;;;26.95;25.15;;;;;;;25.26;100.00;99737.44;5021590;28;20057;-76
2023/11/03 10:20:12;;;;;;;26.83;25.02;;;;;;;24.65;100.00;99733.00;5021063;28;20060;-74
2023/11/03 10:22:40;;;;;;;27.60;25.70;;;;;;;23.35;100.00;99729.47;5023478;28;20064;-73
2023/11/03 10:25:08;;;;;;;28.48;26.88;;;;;;;23.17;100.00;99717.78;5021229;28;20471;-76
2023/11/03 10:27:37;;;;;;;25.88;24.27;;;;;;;23.02;100.00;99711.66;5020015;28;20590;-76
2023/11/03 10:30:05;;;;;;;25.83;24.23;;;;;;;22.59;100.00;99696.00;5022847;28;20064;-76
2023/11/03 10:32:35;;;;;;;27.02;25.02;;;;;;;22.48;100.00;99696.56;5021120;28;20099;-76
2023/11/03 10:35:05;;;;;;;26.95;25.05;;;;;;;22.65;100.00;99685.84;5028765;28;20045;-75
2023/11/03 10:37:36;;;;;;;26.13;24.42;;;;;;;22.70;100.00;99690.34;5028149;28;20522;-76
2023/11/03 10:40:05;;;;;;;26.58;24.67;;;;;;;22.98;100.00;99683.63;5028845;28;20100;-75
2023/11/03 10:42:35;;;;;;;26.85;24.77;;;;;;;23.18;100.00;99682.28;5028376;28;20053;-76
2023/11/03 10:45:06;;;;;;;26.10;24.40;;;;;;;24.10;100.00;99675.97;5028654;28;20140;-76
2023/11/03 10:47:43;;;;;;;26.38;24.50;;;;;;;24.66;100.00;99671.38;5028200;28;20430;-76
2023/11/03 10:50:13;;;;;;;24.13;22.63;;;;;;;24.49;100.00;99674.97;5030324;28;20045;-76
2023/11/03 10:52:45;;;;;;;23.05;21.55;;;;;;;24.10;100.00;99670.53;5027824;28;20060;-76
2023/11/03 10:55:17;;;;;;;23.90;22.40;;;;;;;24.78;100.00;99678.84;5029826;28;20519;-75
2023/11/03 10:57:44;;;;;;;24.92;23.42;;;;;;;25.27;100.00;99679.28;5026105;28;20054;-76
2023/11/03 11:00:20;;;;;;;24.98;23.35;;;;;;;25.21;100.00;99672.44;5028465;28;20053;-76
2023/11/03 11:02:55;;;;;;;26.38;24.77;;;;;;;25.15;100.00;99671.84;5025872;28;20434;-73
2023/11/03 11:05:27;;;;;;;26.33;24.63;;;;;;;25.69;100.00;99682.81;5021801;28;20053;-75
2023/11/03 11:07:59;;;;;;;26.17;24.58;;;;;;;25.79;100.00;99676.97;5019514;28;20526;-76
2023/11/03 11:10:38;;;;;;;33.22;29.48;;;;;;;23.26;100.00;99677.97;5019768;28;20077;-75
2023/11/03 11:13:05;;;;;;;25.50;23.90;;;;;;;25.00;100.00;99681.31;5024667;28;20068;-77